sensor_id;sensor_type;location;lat;lon;timestamp;pressure;altitude;pressure_sealevel;temperature;humidity
63493;BME280;49638;47.526;10.028;2023-02-01T00:02:14;92272.22;;;0.13;80.58
63493;BME280;49638;47.526;10.028;2023-02-01T00:05:14;92259.09;;;0.07;79.99
63493;BME280;49638;47.526;10.028;2023-02-01T00:08:14;92270.75;;;0.19;80.24
63493;BME280;49638;47.526;10.028;2023-02-01T00:11:14;92262.19;;;0.10;80.01
63493;BME280;49638;47.526;10.028;2023-02-01T00:14:15;92290.56;;;0.20;79.78
63493;BME280;49638;47.526;10.028;2023-02-01T00:17:15;92277.75;;;0.18;79.94
63493;BME280;49638;47.526;10.028;2023-02-01T00:20:15;92294.47;;;0.24;80.05
63493;BME280;49638;47.526;10.028;2023-02-01T00:23:16;92292.69;;;0.25;80.40
63493;BME280;49638;47.526;10.028;2023-02-01T00:26:19;92294.31;;;0.26;80.39
63493;BME280;49638;47.526;10.028;2023-02-01T00:29:20;92293.31;;;0.27;80.82
63493;BME280;49638;47.526;10.028;2023-02-01T00:32:20;92267.84;;;0.22;80.42
63493;BME280;49638;47.526;10.028;2023-02-01T00:35:20;92263.28;;;0.24;80.82
63493;BME280;49638;47.526;10.028;2023-02-01T00:38:20;92273.31;;;0.35;80.74
63493;BME280;49638;47.526;10.028;2023-02-01T00:41:21;92269.91;;;0.35;80.40
63493;BME280;49638;47.526;10.028;2023-02-01T00:44:22;92282.06;;;0.42;80.22
63493;BME280;49638;47.526;10.028;2023-02-01T00:47:22;92276.06;;;0.42;79.70
63493;BME280;49638;47.526;10.028;2023-02-01T00:50:22;92262.06;;;0.43;80.30
63493;BME280;49638;47.526;10.028;2023-02-01T00:53:23;92255.75;;;0.37;80.28
63493;BME280;49638;47.526;10.028;2023-02-01T00:56:23;92256.19;;;0.49;80.08
63493;BME280;49638;47.526;10.028;2023-02-01T00:59:23;92251.47;;;0.53;79.73
63493;BME280;49638;47.526;10.028;2023-02-01T01:02:26;92241.06;;;0.53;79.87
63493;BME280;49638;47.526;10.028;2023-02-01T01:05:26;92253.06;;;0.54;80.03
63493;BME280;49638;47.526;10.028;2023-02-01T01:08:27;92241.00;;;0.61;79.95
63493;BME280;49638;47.526;10.028;2023-02-01T01:11:30;92250.72;;;0.67;79.49
63493;BME280;49638;47.526;10.028;2023-02-01T01:14:32;92257.41;;;0.69;79.74
63493;BME280;49638;47.526;10.028;2023-02-01T01:17:32;92252.66;;;0.73;79.43
63493;BME280;49638;47.526;10.028;2023-02-01T01:20:37;92249.06;;;0.74;79.62
63493;BME280;49638;47.526;10.028;2023-02-01T01:23:38;92255.31;;;0.65;79.47
63493;BME280;49638;47.526;10.028;2023-02-01T01:26:38;92243.41;;;0.70;79.60
63493;BME280;49638;47.526;10.028;2023-02-01T01:29:38;92242.94;;;0.67;79.77
63493;BME280;49638;47.526;10.028;2023-02-01T01:32:39;92258.66;;;0.74;79.26
63493;BME280;49638;47.526;10.028;2023-02-01T01:35:39;92251.38;;;0.69;79.43
63493;BME280;49638;47.526;10.028;2023-02-01T01:38:40;92258.19;;;0.70;79.52
63493;BME280;49638;47.526;10.028;2023-02-01T01:41:41;92251.38;;;0.69;79.00
63493;BME280;49638;47.526;10.028;2023-02-01T01:45:00;92254.00;;;0.69;79.19
63493;BME280;49638;47.526;10.028;2023-02-01T01:48:14;92251.38;;;0.69;79.07
63493;BME280;49638;47.526;10.028;2023-02-01T01:51:17;92265.47;;;0.75;79.84
63493;BME280;49638;47.526;10.028;2023-02-01T01:54:24;92248.31;;;0.65;79.57
63493;BME280;49638;47.526;10.028;2023-02-01T01:57:32;92252.66;;;0.73;79.98
63493;BME280;49638;47.526;10.028;2023-02-01T02:00:34;92241.66;;;0.63;80.04
63493;BME280;49638;47.526;10.028;2023-02-01T02:03:38;92244.44;;;0.61;79.24
63493;BME280;49638;47.526;10.028;2023-02-01T02:06:47;92245.41;;;0.60;79.79
63493;BME280;49638;47.526;10.028;2023-02-01T02:09:50;92236.47;;;0.63;79.85
63493;BME280;49638;47.526;10.028;2023-02-01T02:12:51;92232.72;;;0.57;79.88
63493;BME280;49638;47.526;10.028;2023-02-01T02:26:07;92206.00;;;0.40;79.15
63493;BME280;49638;47.526;10.028;2023-02-01T02:36:01;92226.31;;;0.45;79.79
63493;BME280;49638;47.526;10.028;2023-02-01T02:39:08;92229.72;;;0.45;79.48
63493;BME280;49638;47.526;10.028;2023-02-01T02:42:25;92231.19;;;0.48;80.26
63493;BME280;49638;47.526;10.028;2023-02-01T02:46:01;92228.72;;;0.55;79.07
63493;BME280;49638;47.526;10.028;2023-02-01T02:49:42;92231.94;;;0.57;78.85
63493;BME280;49638;47.526;10.028;2023-02-01T02:53:15;92229.66;;;0.54;79.56
63493;BME280;49638;47.526;10.028;2023-02-01T02:56:35;92233.91;;;0.55;80.08
63493;BME280;49638;47.526;10.028;2023-02-01T02:59:57;92230.31;;;0.56;78.49
63493;BME280;49638;47.526;10.028;2023-02-01T03:03:18;92221.88;;;0.54;79.52
63493;BME280;49638;47.526;10.028;2023-02-01T03:06:37;92222.81;;;0.61;79.63
63493;BME280;49638;47.526;10.028;2023-02-01T03:09:40;92203.03;;;0.52;79.39
63493;BME280;49638;47.526;10.028;2023-02-01T03:12:41;92205.31;;;0.55;79.19
63493;BME280;49638;47.526;10.028;2023-02-01T03:19:02;92193.56;;;0.59;79.04
63493;BME280;49638;47.526;10.028;2023-02-01T03:22:11;92193.56;;;0.59;78.73
63493;BME280;49638;47.526;10.028;2023-02-01T03:25:17;92192.25;;;0.63;78.95
63493;BME280;49638;47.526;10.028;2023-02-01T03:28:22;92197.25;;;0.64;78.39
63493;BME280;49638;47.526;10.028;2023-02-01T03:31:23;92196.91;;;0.67;78.08
63493;BME280;49638;47.526;10.028;2023-02-01T03:34:23;92199.81;;;0.73;78.48
63493;BME280;49638;47.526;10.028;2023-02-01T03:37:26;92200.63;;;0.73;78.37
63493;BME280;49638;47.526;10.028;2023-02-01T03:40:30;92207.44;;;0.74;78.36
63493;BME280;49638;47.526;10.028;2023-02-01T03:43:42;92195.16;;;0.68;78.75
63493;BME280;49638;47.526;10.028;2023-02-01T03:47:10;92198.72;;;0.67;79.25
63493;BME280;49638;47.526;10.028;2023-02-01T03:50:18;92200.84;;;0.63;80.07
63493;BME280;49638;47.526;10.028;2023-02-01T03:53:22;92197.44;;;0.63;80.30
63493;BME280;49638;47.526;10.028;2023-02-01T03:56:25;92195.19;;;0.60;80.73
63493;BME280;49638;47.526;10.028;2023-02-01T03:59:27;92197.50;;;0.55;80.72
63493;BME280;49638;47.526;10.028;2023-02-01T04:02:27;92195.41;;;0.50;81.32
63493;BME280;49638;47.526;10.028;2023-02-01T04:05:28;92191.69;;;0.44;81.72
63493;BME280;49638;47.526;10.028;2023-02-01T04:08:28;92200.31;;;0.45;81.43
63493;BME280;49638;47.526;10.028;2023-02-01T04:11:28;92198.53;;;0.37;81.37
63493;BME280;49638;47.526;10.028;2023-02-01T04:14:29;92199.19;;;0.39;81.33
63493;BME280;49638;47.526;10.028;2023-02-01T04:17:29;92200.81;;;0.40;81.30
63493;BME280;49638;47.526;10.028;2023-02-01T04:20:29;92199.78;;;0.50;80.45
63493;BME280;49638;47.526;10.028;2023-02-01T04:23:30;92203.03;;;0.52;79.80
63493;BME280;49638;47.526;10.028;2023-02-01T04:26:31;92194.06;;;0.54;78.63
63493;BME280;49638;47.526;10.028;2023-02-01T04:29:31;92193.78;;;0.49;79.11
63493;BME280;49638;47.526;10.028;2023-02-01T04:32:32;92194.53;;;0.58;79.40
63493;BME280;49638;47.526;10.028;2023-02-01T04:35:32;92200.69;;;0.65;78.33
63493;BME280;49638;47.526;10.028;2023-02-01T04:38:32;92198.09;;;0.65;78.80
63493;BME280;49638;47.526;10.028;2023-02-01T04:41:33;92200.63;;;0.73;77.84
63493;BME280;49638;47.526;10.028;2023-02-01T04:44:33;92206.63;;;0.74;78.38
63493;BME280;49638;47.526;10.028;2023-02-01T04:47:33;92207.44;;;0.74;78.50
63493;BME280;49638;47.526;10.028;2023-02-01T04:50:34;92204.56;;;0.69;78.42
63493;BME280;49638;47.526;10.028;2023-02-01T04:53:34;92213.13;;;0.78;78.59
63493;BME280;49638;47.526;10.028;2023-02-01T04:56:34;92213.63;;;0.73;78.15
63493;BME280;49638;47.526;10.028;2023-02-01T04:59:35;92225.16;;;0.79;78.02
63493;BME280;49638;47.526;10.028;2023-02-01T05:02:35;92236.03;;;0.82;77.85
63493;BME280;49638;47.526;10.028;2023-02-01T05:05:35;92257.31;;;0.86;77.89
63493;BME280;49638;47.526;10.028;2023-02-01T05:08:36;92255.84;;;0.83;78.09
63493;BME280;49638;47.526;10.028;2023-02-01T05:11:36;92267.19;;;0.90;77.23
63493;BME280;49638;47.526;10.028;2023-02-01T05:14:55;92270.13;;;0.87;77.19
63493;BME280;49638;47.526;10.028;2023-02-01T05:17:56;92267.06;;;0.84;77.34
63493;BME280;49638;47.526;10.028;2023-02-01T05:20:56;92275.69;;;0.84;77.29
63493;BME280;49638;47.526;10.028;2023-02-01T05:23:56;92278.75;;;0.88;77.00
63493;BME280;49638;47.526;10.028;2023-02-01T05:27:20;92275.34;;;0.87;77.09
63493;BME280;49638;47.526;10.028;2023-02-01T05:30:20;92271.81;;;0.80;77.47
63493;BME280;49638;47.526;10.028;2023-02-01T05:33:21;92264.69;;;0.74;77.85
63493;BME280;49638;47.526;10.028;2023-02-01T05:36:22;92255.91;;;0.75;77.56
63493;BME280;49638;47.526;10.028;2023-02-01T05:39:22;92258.03;;;0.72;77.67
63493;BME280;49638;47.526;10.028;2023-02-01T05:42:22;92267.25;;;0.82;77.95
63493;BME280;49638;47.526;10.028;2023-02-01T05:45:23;92262.53;;;0.86;78.03
63493;BME280;49638;47.526;10.028;2023-02-01T05:48:23;92244.47;;;0.84;78.26
63493;BME280;49638;47.526;10.028;2023-02-01T05:51:24;92230.81;;;0.82;78.44
63493;BME280;49638;47.526;10.028;2023-02-01T05:54:24;92248.38;;;0.80;79.22
63493;BME280;49638;47.526;10.028;2023-02-01T05:57:24;92240.19;;;0.68;79.16
63493;BME280;49638;47.526;10.028;2023-02-01T06:00:25;92247.13;;;0.76;79.16
63493;BME280;49638;47.526;10.028;2023-02-01T06:03:25;92263.38;;;0.78;79.25
63493;BME280;49638;47.526;10.028;2023-02-01T06:06:25;92264.22;;;0.70;79.80
63493;BME280;49638;47.526;10.028;2023-02-01T06:09:26;92273.81;;;0.70;79.90
63493;BME280;49638;47.526;10.028;2023-02-01T06:12:26;92256.94;;;0.66;80.42
63493;BME280;49638;47.526;10.028;2023-02-01T06:15:28;92256.75;;;0.67;80.54
63493;BME280;49638;47.526;10.028;2023-02-01T06:18:29;92239.25;;;0.61;80.38
63493;BME280;49638;47.526;10.028;2023-02-01T06:21:30;92236.59;;;0.69;81.19
63493;BME280;49638;47.526;10.028;2023-02-01T06:24:30;92242.25;;;0.73;80.92
63493;BME280;49638;47.526;10.028;2023-02-01T06:27:31;92247.78;;;0.70;80.98
63493;BME280;49638;47.526;10.028;2023-02-01T06:30:32;92250.25;;;0.72;80.74
63493;BME280;49638;47.526;10.028;2023-02-01T06:33:33;92244.66;;;0.75;80.24
63493;BME280;49638;47.526;10.028;2023-02-01T06:36:34;92251.38;;;0.69;80.05
63493;BME280;49638;47.526;10.028;2023-02-01T06:39:34;92267.59;;;0.79;79.78
63493;BME280;49638;47.526;10.028;2023-02-01T06:42:34;92281.59;;;0.78;79.95
63493;BME280;49638;47.526;10.028;2023-02-01T06:45:34;92265.00;;;0.71;80.13
63493;BME280;49638;47.526;10.028;2023-02-01T06:48:35;92280.28;;;0.74;80.19
63493;BME280;49638;47.526;10.028;2023-02-01T06:51:35;92279.63;;;0.80;80.18
63493;BME280;49638;47.526;10.028;2023-02-01T06:54:35;92283.06;;;0.73;79.39
63493;BME280;49638;47.526;10.028;2023-02-01T06:57:37;92287.81;;;0.69;79.55
63493;BME280;49638;47.526;10.028;2023-02-01T07:00:37;92302.44;;;0.70;79.54
63493;BME280;49638;47.526;10.028;2023-02-01T07:03:39;92316.84;;;0.81;79.66
63493;BME280;49638;47.526;10.028;2023-02-01T07:06:39;92328.06;;;0.81;79.79
63493;BME280;49638;47.526;10.028;2023-02-01T07:09:40;92316.38;;;0.77;79.85
63493;BME280;49638;47.526;10.028;2023-02-01T07:12:40;92333.09;;;0.83;79.83
63493;BME280;49638;47.526;10.028;2023-02-01T07:15:41;92317.69;;;0.73;80.01
63493;BME280;49638;47.526;10.028;2023-02-01T07:18:41;92322.84;;;0.81;80.27
63493;BME280;49638;47.526;10.028;2023-02-01T07:21:42;92324.97;;;0.86;80.39
63493;BME280;49638;47.526;10.028;2023-02-01T07:24:42;92330.50;;;0.83;80.54
63493;BME280;49638;47.526;10.028;2023-02-01T07:27:42;92311.81;;;0.79;80.59
63493;BME280;49638;47.526;10.028;2023-02-01T07:30:42;92314.72;;;0.84;80.78
63493;BME280;49638;47.526;10.028;2023-02-01T07:33:42;92326.09;;;0.83;80.99
63493;BME280;49638;47.526;10.028;2023-02-01T07:36:43;92322.19;;;0.87;81.06
63493;BME280;49638;47.526;10.028;2023-02-01T07:39:43;92326.56;;;0.87;81.16
63493;BME280;49638;47.526;10.028;2023-02-01T07:42:43;92330.03;;;0.79;81.30
63493;BME280;49638;47.526;10.028;2023-02-01T07:45:50;92315.69;;;0.83;81.43
63493;BME280;49638;47.526;10.028;2023-02-01T07:48:50;92320.22;;;0.89;81.46
63493;BME280;49638;47.526;10.028;2023-02-01T07:51:51;92331.91;;;0.93;81.28
63493;BME280;49638;47.526;10.028;2023-02-01T07:54:51;92332.72;;;0.94;81.65
63493;BME280;49638;47.526;10.028;2023-02-01T07:57:51;92312.09;;;0.92;81.71
63493;BME280;49638;47.526;10.028;2023-02-01T08:00:52;92310.16;;;0.86;81.66
63493;BME280;49638;47.526;10.028;2023-02-01T08:04:12;92318.56;;;0.97;81.64
63493;BME280;49638;47.526;10.028;2023-02-01T08:07:12;92304.91;;;0.94;81.78
63493;BME280;49638;47.526;10.028;2023-02-01T08:10:12;92323.09;;;1.03;81.84
63493;BME280;49638;47.526;10.028;2023-02-01T08:13:14;92319.69;;;1.02;82.06
63493;BME280;49638;47.526;10.028;2023-02-01T08:16:16;92304.09;;;0.94;81.96
63493;BME280;49638;47.526;10.028;2023-02-01T08:19:17;92324.38;;;1.07;81.68
63493;BME280;49638;47.526;10.028;2023-02-01T08:22:17;92313.31;;;1.05;82.12
63493;BME280;49638;47.526;10.028;2023-02-01T08:25:17;92304.34;;;1.07;82.10
63493;BME280;49638;47.526;10.028;2023-02-01T08:28:18;92307.59;;;1.09;82.68
63493;BME280;49638;47.526;10.028;2023-02-01T08:31:19;92302.91;;;1.05;83.43
63493;BME280;49638;47.526;10.028;2023-02-01T08:34:21;92305.16;;;1.08;83.60
63493;BME280;49638;47.526;10.028;2023-02-01T08:37:21;92295.88;;;1.05;83.49
63493;BME280;49638;47.526;10.028;2023-02-01T08:40:22;92302.22;;;1.11;83.28
63493;BME280;49638;47.526;10.028;2023-02-01T08:43:22;92304.28;;;1.15;83.53
63493;BME280;49638;47.526;10.028;2023-02-01T08:46:24;92319.09;;;1.15;83.82
63493;BME280;49638;47.526;10.028;2023-02-01T08:49:24;92313.28;;;1.13;83.97
63493;BME280;49638;47.526;10.028;2023-02-01T08:52:24;92309.88;;;1.12;83.76
63493;BME280;49638;47.526;10.028;2023-02-01T08:55:24;92303.94;;;1.18;83.55
63493;BME280;49638;47.526;10.028;2023-02-01T08:58:26;92291.28;;;1.15;83.28
63493;BME280;49638;47.526;10.028;2023-02-01T09:01:26;92287.53;;;1.18;83.34
63493;BME280;49638;47.526;10.028;2023-02-01T09:04:27;92305.06;;;1.24;83.22
63493;BME280;49638;47.526;10.028;2023-02-01T09:07:27;92305.19;;;1.31;82.91
63493;BME280;49638;47.526;10.028;2023-02-01T09:10:27;92318.78;;;1.41;82.88
63493;BME280;49638;47.526;10.028;2023-02-01T09:13:28;92311.16;;;1.39;83.57
63493;BME280;49638;47.526;10.028;2023-02-01T09:16:28;92330.59;;;1.52;83.19
63493;BME280;49638;47.526;10.028;2023-02-01T09:19:28;92336.25;;;1.55;82.96
63493;BME280;49638;47.526;10.028;2023-02-01T09:22:28;92343.94;;;1.57;82.71
63493;BME280;49638;47.526;10.028;2023-02-01T09:25:29;92347.16;;;1.59;82.84
63493;BME280;49638;47.526;10.028;2023-02-01T09:28:30;92362.75;;;1.67;82.59
63493;BME280;49638;47.526;10.028;2023-02-01T09:31:30;92360.81;;;1.61;82.44
63493;BME280;49638;47.526;10.028;2023-02-01T09:34:31;92366.03;;;1.61;82.61
63493;BME280;49638;47.526;10.028;2023-02-01T09:37:31;92362.78;;;1.59;82.78
63493;BME280;49638;47.526;10.028;2023-02-01T09:40:34;92367.75;;;1.69;82.72
63493;BME280;49638;47.526;10.028;2023-02-01T09:43:49;92389.19;;;1.79;82.29
63493;BME280;49638;47.526;10.028;2023-02-01T09:46:55;92376.34;;;1.77;81.99
63493;BME280;49638;47.526;10.028;2023-02-01T09:50:21;92372.41;;;1.81;81.89
63493;BME280;49638;47.526;10.028;2023-02-01T09:53:36;92367.88;;;1.75;82.20
63493;BME280;49638;47.526;10.028;2023-02-01T09:56:46;92358.00;;;1.71;81.94
63493;BME280;49638;47.526;10.028;2023-02-01T09:59:51;92370.25;;;1.85;81.59
63493;BME280;49638;47.526;10.028;2023-02-01T10:02:54;92365.56;;;1.80;81.87
63493;BME280;49638;47.526;10.028;2023-02-01T10:12:41;92379.22;;;1.82;82.58
63493;BME280;49638;47.526;10.028;2023-02-01T10:16:06;92383.41;;;1.92;81.88
63493;BME280;49638;47.526;10.028;2023-02-01T10:19:38;92377.03;;;1.94;80.56
63493;BME280;49638;47.526;10.028;2023-02-01T10:22:44;92381.53;;;2.00;81.60
63493;BME280;49638;47.526;10.028;2023-02-01T10:26:20;92366.25;;;1.97;80.28
63493;BME280;49638;47.526;10.028;2023-02-01T10:29:25;92353.78;;;2.07;81.28
63493;BME280;49638;47.526;10.028;2023-02-01T10:32:32;92357.03;;;2.09;81.28
63493;BME280;49638;47.526;10.028;2023-02-01T10:35:36;92345.13;;;2.07;81.35
63493;BME280;49638;47.526;10.028;2023-02-01T10:38:38;92325.91;;;2.08;81.25
63493;BME280;49638;47.526;10.028;2023-02-01T10:41:39;92321.97;;;2.12;81.38
63493;BME280;49638;47.526;10.028;2023-02-01T10:44:43;92332.41;;;2.12;81.13
63493;BME280;49638;47.526;10.028;2023-02-01T10:47:47;92337.25;;;2.15;80.98
63493;BME280;49638;47.526;10.028;2023-02-01T10:50:55;92309.19;;;2.17;80.54
63493;BME280;49638;47.526;10.028;2023-02-01T10:54:01;92312.09;;;2.22;80.38
63493;BME280;49638;47.526;10.028;2023-02-01T10:57:10;92322.34;;;2.24;79.99
63493;BME280;49638;47.526;10.028;2023-02-01T11:00:20;92320.25;;;2.19;79.72
63493;BME280;49638;47.526;10.028;2023-02-01T11:06:38;92324.94;;;2.24;80.26
63493;BME280;49638;47.526;10.028;2023-02-01T11:09:40;92313.59;;;2.17;80.63
63493;BME280;49638;47.526;10.028;2023-02-01T11:12:40;92321.00;;;2.28;80.57
63493;BME280;49638;47.526;10.028;2023-02-01T11:15:45;92331.69;;;2.33;79.92
63493;BME280;49638;47.526;10.028;2023-02-01T11:18:53;92335.56;;;2.37;80.04
63493;BME280;49638;47.526;10.028;2023-02-01T11:21:59;92315.69;;;2.21;79.28
63493;BME280;49638;47.526;10.028;2023-02-01T11:25:01;92327.56;;;2.39;80.06
63493;BME280;49638;47.526;10.028;2023-02-01T11:28:08;92318.41;;;2.43;80.05
63493;BME280;49638;47.526;10.028;2023-02-01T11:31:10;92313.19;;;2.43;79.45
63493;BME280;49638;47.526;10.028;2023-02-01T11:34:14;92304.00;;;2.47;79.32
63493;BME280;49638;47.526;10.028;2023-02-01T11:37:21;92299.44;;;2.49;79.61
63493;BME280;49638;47.526;10.028;2023-02-01T11:40:37;92294.00;;;2.50;78.71
63493;BME280;49638;47.526;10.028;2023-02-01T11:43:50;92296.63;;;2.50;79.06
63493;BME280;49638;47.526;10.028;2023-02-01T11:46:50;92278.09;;;2.45;80.13
63493;BME280;49638;47.526;10.028;2023-02-01T11:49:53;92280.72;;;2.45;80.28
63493;BME280;49638;47.526;10.028;2023-02-01T11:53:16;92283.13;;;2.47;79.60
63493;BME280;49638;47.526;10.028;2023-02-01T11:56:30;92272.59;;;2.40;79.65
63493;BME280;49638;47.526;10.028;2023-02-01T11:59:58;92276.03;;;2.41;79.54
63493;BME280;49638;47.526;10.028;2023-02-01T12:09:43;92257.59;;;2.42;80.15
63493;BME280;49638;47.526;10.028;2023-02-01T12:13:13;92260.00;;;2.44;79.53
63493;BME280;49638;47.526;10.028;2023-02-01T12:23:17;92256.44;;;2.45;80.34
63493;BME280;49638;47.526;10.028;2023-02-01T12:41:01;92256.44;;;2.45;79.41
63493;BME280;49638;47.526;10.028;2023-02-01T12:44:10;92247.41;;;2.47;79.73
63493;BME280;49638;47.526;10.028;2023-02-01T12:47:24;92248.78;;;2.43;79.94
63493;BME280;49638;47.526;10.028;2023-02-01T12:50:49;92227.25;;;2.41;79.00
63493;BME280;49638;47.526;10.028;2023-02-01T12:53:59;92220.19;;;2.35;80.08
63493;BME280;49638;47.526;10.028;2023-02-01T12:57:05;92226.38;;;2.34;79.34
63493;BME280;49638;47.526;10.028;2023-02-01T13:00:30;92209.84;;;2.27;79.77
63493;BME280;49638;47.526;10.028;2023-02-01T13:07:16;92200.22;;;2.27;79.02
63493;BME280;49638;47.526;10.028;2023-02-01T13:10:40;92199.69;;;2.17;78.66
63493;BME280;49638;47.526;10.028;2023-02-01T13:14:16;92197.78;;;2.26;78.98
63493;BME280;49638;47.526;10.028;2023-02-01T13:17:19;92196.53;;;2.22;77.93
63493;BME280;49638;47.526;10.028;2023-02-01T13:23:40;92199.22;;;2.13;79.27
63493;BME280;49638;47.526;10.028;2023-02-01T13:26:45;92188.00;;;2.13;78.97
63493;BME280;49638;47.526;10.028;2023-02-01T13:30:03;92193.91;;;2.07;78.95
63493;BME280;49638;47.526;10.028;2023-02-01T13:33:23;92190.69;;;2.05;77.50
63493;BME280;49638;47.526;10.028;2023-02-01T13:39:43;92178.75;;;1.96;77.76
63493;BME280;49638;47.526;10.028;2023-02-01T13:42:58;92177.66;;;1.90;77.75
63493;BME280;49638;47.526;10.028;2023-02-01T13:46:06;92156.44;;;1.93;78.94
63493;BME280;49638;47.526;10.028;2023-02-01T13:49:18;92169.22;;;1.88;78.67
63493;BME280;49638;47.526;10.028;2023-02-01T13:52:38;92176.50;;;1.93;77.87
63493;BME280;49638;47.526;10.028;2023-02-01T13:55:41;92170.91;;;1.96;78.93
63493;BME280;49638;47.526;10.028;2023-02-01T13:58:46;92165.25;;;1.92;79.12
63493;BME280;49638;47.526;10.028;2023-02-01T14:01:46;92167.06;;;1.92;79.18
63493;BME280;49638;47.526;10.028;2023-02-01T14:04:49;92166.06;;;1.93;78.62
63493;BME280;49638;47.526;10.028;2023-02-01T14:11:06;92179.28;;;1.91;78.94
63493;BME280;49638;47.526;10.028;2023-02-01T14:17:33;92202.91;;;1.89;78.23
63493;BME280;49638;47.526;10.028;2023-02-01T14:20:42;92185.13;;;1.78;77.72
63493;BME280;49638;47.526;10.028;2023-02-01T14:23:45;92211.97;;;1.79;77.92
63493;BME280;49638;47.526;10.028;2023-02-01T14:26:51;92214.03;;;1.83;78.32
63493;BME280;49638;47.526;10.028;2023-02-01T14:30:00;92212.44;;;1.82;77.82
63493;BME280;49638;47.526;10.028;2023-02-01T14:33:12;92215.75;;;1.76;78.10
63493;BME280;49638;47.526;10.028;2023-02-01T14:36:18;92215.03;;;1.82;78.90
63493;BME280;49638;47.526;10.028;2023-02-01T14:39:29;92232.66;;;1.80;79.21
63493;BME280;49638;47.526;10.028;2023-02-01T14:45:47;92225.47;;;1.82;79.12
63493;BME280;49638;47.526;10.028;2023-02-01T14:48:50;92226.28;;;1.83;79.45
63493;BME280;49638;47.526;10.028;2023-02-01T14:51:52;92234.09;;;1.83;79.21
63493;BME280;49638;47.526;10.028;2023-02-01T14:54:55;92227.81;;;1.77;80.15
63493;BME280;49638;47.526;10.028;2023-02-01T14:57:57;92234.97;;;1.75;80.13
63493;BME280;49638;47.526;10.028;2023-02-01T15:01:22;92223.13;;;1.73;80.24
63493;BME280;49638;47.526;10.028;2023-02-01T15:04:25;92221.03;;;1.68;80.66
63493;BME280;49638;47.526;10.028;2023-02-01T15:07:27;92217.00;;;1.65;80.75
63493;BME280;49638;47.526;10.028;2023-02-01T15:10:28;92221.84;;;1.69;81.20
63493;BME280;49638;47.526;10.028;2023-02-01T15:13:30;92200.00;;;1.55;81.06
63493;BME280;49638;47.526;10.028;2023-02-01T15:16:31;92205.13;;;1.63;81.48
63493;BME280;49638;47.526;10.028;2023-02-01T15:19:32;92220.75;;;1.63;81.72
63493;BME280;49638;47.526;10.028;2023-02-01T15:22:32;92218.34;;;1.61;81.96
63493;BME280;49638;47.526;10.028;2023-02-01T15:25:35;92213.84;;;1.55;81.96
63493;BME280;49638;47.526;10.028;2023-02-01T15:28:36;92217.25;;;1.56;82.45
63493;BME280;49638;47.526;10.028;2023-02-01T15:34:49;92211.94;;;1.49;82.16
63493;BME280;49638;47.526;10.028;2023-02-01T15:37:50;92232.41;;;1.52;82.08
63493;BME280;49638;47.526;10.028;2023-02-01T15:41:14;92233.94;;;1.47;83.03
63493;BME280;49638;47.526;10.028;2023-02-01T15:44:44;92229.25;;;1.42;83.25
63493;BME280;49638;47.526;10.028;2023-02-01T15:47:47;92228.75;;;1.47;82.02
63493;BME280;49638;47.526;10.028;2023-02-01T15:50:48;92228.16;;;1.36;82.35
63493;BME280;49638;47.526;10.028;2023-02-01T15:53:54;92240.19;;;1.37;82.21
63493;BME280;49638;47.526;10.028;2023-02-01T15:56:58;92247.22;;;1.37;82.06
63493;BME280;49638;47.526;10.028;2023-02-01T16:00:21;92269.13;;;1.42;83.67
63493;BME280;49638;47.526;10.028;2023-02-01T16:03:36;92269.50;;;1.39;82.56
63493;BME280;49638;47.526;10.028;2023-02-01T16:06:45;92281.88;;;1.37;83.26
63493;BME280;49638;47.526;10.028;2023-02-01T16:09:53;92281.41;;;1.34;82.78
63493;BME280;49638;47.526;10.028;2023-02-01T16:12:54;92289.38;;;1.32;81.56
63493;BME280;49638;47.526;10.028;2023-02-01T16:15:58;92295.06;;;1.36;81.67
63493;BME280;49638;47.526;10.028;2023-02-01T16:18:59;92313.56;;;1.41;81.42
63493;BME280;49638;47.526;10.028;2023-02-01T16:21:59;92298.47;;;1.36;80.99
63493;BME280;49638;47.526;10.028;2023-02-01T16:24:59;92314.38;;;1.41;81.09
63493;BME280;49638;47.526;10.028;2023-02-01T16:28:00;92320.94;;;1.37;81.05
63493;BME280;49638;47.526;10.028;2023-02-01T16:31:00;92306.09;;;1.38;80.79
63493;BME280;49638;47.526;10.028;2023-02-01T16:34:01;92301.13;;;1.28;80.86
63493;BME280;49638;47.526;10.028;2023-02-01T16:37:02;92319.13;;;1.38;81.03
63493;BME280;49638;47.526;10.028;2023-02-01T16:40:03;92320.28;;;1.35;81.06
63493;BME280;49638;47.526;10.028;2023-02-01T16:43:21;92319.66;;;1.33;80.21
63493;BME280;49638;47.526;10.028;2023-02-01T16:46:25;92336.91;;;1.34;80.79
63493;BME280;49638;47.526;10.028;2023-02-01T16:49:25;92322.59;;;1.30;80.56
63493;BME280;49638;47.526;10.028;2023-02-01T16:52:26;92337.53;;;1.36;80.67
63493;BME280;49638;47.526;10.028;2023-02-01T16:55:26;92348.88;;;1.44;80.92
63493;BME280;49638;47.526;10.028;2023-02-01T16:58:27;92343.69;;;1.44;80.95
63493;BME280;49638;47.526;10.028;2023-02-01T17:01:28;92333.94;;;1.37;80.81
63493;BME280;49638;47.526;10.028;2023-02-01T17:04:28;92361.25;;;1.41;80.55
63493;BME280;49638;47.526;10.028;2023-02-01T17:07:29;92355.31;;;1.33;80.87
63493;BME280;49638;47.526;10.028;2023-02-01T17:10:30;92342.75;;;1.36;80.64
63493;BME280;49638;47.526;10.028;2023-02-01T17:13:32;92357.38;;;1.37;80.56
63493;BME280;49638;47.526;10.028;2023-02-01T17:16:32;92355.31;;;1.33;80.71
63493;BME280;49638;47.526;10.028;2023-02-01T17:19:33;92357.06;;;1.32;80.66
63493;BME280;49638;47.526;10.028;2023-02-01T17:22:33;92356.94;;;1.26;80.31
63493;BME280;49638;47.526;10.028;2023-02-01T17:25:33;92330.09;;;1.25;80.27
63493;BME280;49638;47.526;10.028;2023-02-01T17:28:34;92343.25;;;1.32;78.95
63493;BME280;49638;47.526;10.028;2023-02-01T17:31:45;92349.44;;;1.31;79.88
63493;BME280;49638;47.526;10.028;2023-02-01T17:34:46;92353.03;;;1.30;79.93
63493;BME280;49638;47.526;10.028;2023-02-01T17:37:47;92359.41;;;1.27;79.95
63493;BME280;49638;47.526;10.028;2023-02-01T17:40:48;92320.88;;;1.23;79.59